sensor_id;sensor_type;location;lat;lon;timestamp;pressure;altitude;pressure_sealevel;temperature;humidity
62557;BME280;48612;50.742;-1.226;2022-09-13T00:01:23;98624.63;;;18.14;100.00
62557;BME280;48612;50.742;-1.226;2022-09-13T00:04:22;98627.31;;;18.14;100.00
62557;BME280;48612;50.742;-1.226;2022-09-13T00:07:14;98625.09;;;18.16;100.00
62557;BME280;48612;50.742;-1.226;2022-09-13T00:10:05;98628.53;;;18.16;100.00
62557;BME280;48612;50.742;-1.226;2022-09-13T00:12:54;98629.50;;;18.12;100.00
62557;BME280;48612;50.742;-1.226;2022-09-13T00:15:21;98640.00;;;18.17;100.00
62557;BME280;48612;50.742;-1.226;2022-09-13T00:18:21;98645.34;;;18.17;100.00
62557;BME280;48612;50.742;-1.226;2022-09-13T00:21:32;98640.00;;;18.17;100.00
62557;BME280;48612;50.742;-1.226;2022-09-13T00:24:38;98640.81;;;18.17;100.00
62557;BME280;48612;50.742;-1.226;2022-09-13T00:27:10;98646.16;;;18.17;100.00
62557;BME280;48612;50.742;-1.226;2022-09-13T00:29:47;98654.16;;;18.17;100.00
62557;BME280;48612;50.742;-1.226;2022-09-13T00:32:36;98646.16;;;18.17;100.00
62557;BME280;48612;50.742;-1.226;2022-09-13T00:35:11;98646.94;;;18.18;100.00
62557;BME280;48612;50.742;-1.226;2022-09-13T00:37:57;98630.44;;;18.16;100.00
62557;BME280;48612;50.742;-1.226;2022-09-13T00:40:29;98635.31;;;18.14;100.00
62557;BME280;48612;50.742;-1.226;2022-09-13T00:42:59;98638.44;;;18.16;100.00
62557;BME280;48612;50.742;-1.226;2022-09-13T00:45:29;98630.75;;;18.14;100.00
62557;BME280;48612;50.742;-1.226;2022-09-13T00:48:20;98640.47;;;18.19;100.00
62557;BME280;48612;50.742;-1.226;2022-09-13T00:51:13;98643.91;;;18.19;100.00
62557;BME280;48612;50.742;-1.226;2022-09-13T00:53:47;98635.47;;;18.17;100.00
62557;BME280;48612;50.742;-1.226;2022-09-13T00:56:31;98652.56;;;18.16;100.00
62557;BME280;48612;50.742;-1.226;2022-09-13T00:59:55;98658.25;;;18.15;100.00
62557;BME280;48612;50.742;-1.226;2022-09-13T01:03:07;98669.56;;;18.12;100.00
62557;BME280;48612;50.742;-1.226;2022-09-13T01:06:16;98669.41;;;18.08;100.00
62557;BME280;48612;50.742;-1.226;2022-09-13T01:09:09;98679.94;;;18.05;100.00
62557;BME280;48612;50.742;-1.226;2022-09-13T01:15:23;98680.59;;;18.01;100.00
62557;BME280;48612;50.742;-1.226;2022-09-13T01:18:00;98696.59;;;18.01;100.00
62557;BME280;48612;50.742;-1.226;2022-09-13T01:30:04;98700.41;;;17.83;100.00
62557;BME280;48612;50.742;-1.226;2022-09-13T01:38:53;98685.03;;;17.80;100.00
62557;BME280;48612;50.742;-1.226;2022-09-13T01:45:23;98673.41;;;17.76;100.00
62557;BME280;48612;50.742;-1.226;2022-09-13T01:48:33;98679.53;;;17.76;100.00
62557;BME280;48612;50.742;-1.226;2022-09-13T01:52:07;98673.09;;;17.77;100.00
62557;BME280;48612;50.742;-1.226;2022-09-13T01:55:17;98668.84;;;17.85;100.00
62557;BME280;48612;50.742;-1.226;2022-09-13T02:00:52;98661.28;;;17.96;100.00
62557;BME280;48612;50.742;-1.226;2022-09-13T02:03:52;98655.59;;;18.06;100.00
62557;BME280;48612;50.742;-1.226;2022-09-13T02:09:51;98669.38;;;18.17;100.00
62557;BME280;48612;50.742;-1.226;2022-09-13T02:12:26;98672.03;;;18.17;100.00
62557;BME280;48612;50.742;-1.226;2022-09-13T02:15:30;98668.28;;;18.18;100.00
62557;BME280;48612;50.742;-1.226;2022-09-13T02:18:32;98674.41;;;18.18;100.00
62557;BME280;48612;50.742;-1.226;2022-09-13T02:21:38;98674.41;;;18.18;100.00
62557;BME280;48612;50.742;-1.226;2022-09-13T02:24:47;98688.88;;;18.17;100.00
62557;BME280;48612;50.742;-1.226;2022-09-13T02:27:51;98693.41;;;18.17;100.00
62557;BME280;48612;50.742;-1.226;2022-09-13T02:30:47;98684.63;;;18.16;100.00
62557;BME280;48612;50.742;-1.226;2022-09-13T02:33:41;98680.25;;;18.12;100.00
62557;BME280;48612;50.742;-1.226;2022-09-13T02:36:12;98674.28;;;18.15;100.00
62557;BME280;48612;50.742;-1.226;2022-09-13T02:39:02;98679.63;;;18.15;100.00
62557;BME280;48612;50.742;-1.226;2022-09-13T02:42:20;98684.19;;;18.14;100.00
62557;BME280;48612;50.742;-1.226;2022-09-13T02:45:11;98693.13;;;18.18;100.00
62557;BME280;48612;50.742;-1.226;2022-09-13T02:48:07;98704.28;;;18.20;100.00
62557;BME280;48612;50.742;-1.226;2022-09-13T02:51:18;98703.66;;;18.15;100.00
62557;BME280;48612;50.742;-1.226;2022-09-13T02:55:12;98714.97;;;18.12;100.00
62557;BME280;48612;50.742;-1.226;2022-09-13T03:00:21;98710.59;;;18.07;100.00
62557;BME280;48612;50.742;-1.226;2022-09-13T03:02:55;98715.94;;;18.07;100.00
62557;BME280;48612;50.742;-1.226;2022-09-13T03:05:43;98715.16;;;18.07;100.00
62557;BME280;48612;50.742;-1.226;2022-09-13T03:08:29;98720.50;;;18.07;100.00
62557;BME280;48612;50.742;-1.226;2022-09-13T03:11:37;98719.69;;;18.06;100.00
62557;BME280;48612;50.742;-1.226;2022-09-13T03:17:40;98713.56;;;18.06;100.00
62557;BME280;48612;50.742;-1.226;2022-09-13T03:21:37;98716.22;;;18.06;100.00
62557;BME280;48612;50.742;-1.226;2022-09-13T03:26:32;98715.16;;;18.07;100.00
62557;BME280;48612;50.742;-1.226;2022-09-13T03:32:15;98718.91;;;18.06;100.00
62557;BME280;48612;50.742;-1.226;2022-09-13T03:35:10;98712.00;;;18.05;100.00
62557;BME280;48612;50.742;-1.226;2022-09-13T03:38:38;98713.09;;;18.03;100.00
62557;BME280;48612;50.742;-1.226;2022-09-13T03:41:52;98720.63;;;18.01;100.00
62557;BME280;48612;50.742;-1.226;2022-09-13T03:45:04;98735.56;;;18.02;100.00
62557;BME280;48612;50.742;-1.226;2022-09-13T03:47:54;98739.47;;;18.05;100.00
62557;BME280;48612;50.742;-1.226;2022-09-13T03:50:27;98740.25;;;18.06;100.00
62557;BME280;48612;50.742;-1.226;2022-09-13T03:53:14;98761.00;;;18.09;100.00
62557;BME280;48612;50.742;-1.226;2022-09-13T03:55:48;98765.22;;;18.10;100.00
62557;BME280;48612;50.742;-1.226;2022-09-13T03:58:33;98767.91;;;18.10;100.00
62557;BME280;48612;50.742;-1.226;2022-09-13T04:01:17;98765.88;;;18.07;100.00
62557;BME280;48612;50.742;-1.226;2022-09-13T04:04:08;98761.78;;;18.09;100.00
62557;BME280;48612;50.742;-1.226;2022-09-13T04:06:57;98768.19;;;18.17;100.00
62557;BME280;48612;50.742;-1.226;2022-09-13T04:09:54;98778.25;;;18.20;100.00
62557;BME280;48612;50.742;-1.226;2022-09-13T04:12:25;98783.16;;;18.18;100.00
62557;BME280;48612;50.742;-1.226;2022-09-13T04:15:11;98795.88;;;18.21;100.00
62557;BME280;48612;50.742;-1.226;2022-09-13T04:17:45;98797.75;;;18.20;100.00
62557;BME280;48612;50.742;-1.226;2022-09-13T04:20:30;98817.69;;;18.23;100.00
62557;BME280;48612;50.742;-1.226;2022-09-13T04:23:01;98810.47;;;18.23;100.00
62557;BME280;48612;50.742;-1.226;2022-09-13T04:25:30;98819.28;;;18.24;100.00
62557;BME280;48612;50.742;-1.226;2022-09-13T04:27:58;98823.97;;;18.27;100.00
62557;BME280;48612;50.742;-1.226;2022-09-13T04:30:26;98826.97;;;18.25;100.00
62557;BME280;48612;50.742;-1.226;2022-09-13T04:32:52;98821.78;;;18.29;100.00
62557;BME280;48612;50.742;-1.226;2022-09-13T04:35:22;98821.78;;;18.29;100.00
62557;BME280;48612;50.742;-1.226;2022-09-13T04:37:47;98826.16;;;18.34;100.00
62557;BME280;48612;50.742;-1.226;2022-09-13T04:40:13;98823.97;;;18.36;100.00
62557;BME280;48612;50.742;-1.226;2022-09-13T04:42:42;98819.41;;;18.36;100.00
62557;BME280;48612;50.742;-1.226;2022-09-13T04:45:28;98821.13;;;18.41;100.00
62557;BME280;48612;50.742;-1.226;2022-09-13T04:47:58;98821.94;;;18.41;100.00
62557;BME280;48612;50.742;-1.226;2022-09-13T04:50:44;98823.78;;;18.41;100.00
62557;BME280;48612;50.742;-1.226;2022-09-13T04:53:12;98824.13;;;18.39;100.00
62557;BME280;48612;50.742;-1.226;2022-09-13T04:56:01;98823.34;;;18.39;100.00
62557;BME280;48612;50.742;-1.226;2022-09-13T04:58:55;98809.84;;;18.35;100.00
62557;BME280;48612;50.742;-1.226;2022-09-13T05:01:25;98802.28;;;18.37;100.00
62557;BME280;48612;50.742;-1.226;2022-09-13T05:04:17;98804.94;;;18.37;100.00
62557;BME280;48612;50.742;-1.226;2022-09-13T05:07:32;98799.94;;;18.36;100.00
62557;BME280;48612;50.742;-1.226;2022-09-13T05:10:10;98801.81;;;18.35;100.00
62557;BME280;48612;50.742;-1.226;2022-09-13T05:12:44;98812.50;;;18.35;100.00
62557;BME280;48612;50.742;-1.226;2022-09-13T05:15:10;98802.78;;;18.31;100.00
62557;BME280;48612;50.742;-1.226;2022-09-13T05:17:37;98807.78;;;18.32;100.00
62557;BME280;48612;50.742;-1.226;2022-09-13T05:20:04;98808.91;;;18.31;100.00
62557;BME280;48612;50.742;-1.226;2022-09-13T05:22:34;98803.06;;;18.29;100.00
62557;BME280;48612;50.742;-1.226;2022-09-13T05:25:22;98796.63;;;18.30;100.00
62557;BME280;48612;50.742;-1.226;2022-09-13T05:27:56;98795.53;;;18.31;100.00
62557;BME280;48612;50.742;-1.226;2022-09-13T05:30:26;98780.16;;;18.28;100.00
62557;BME280;48612;50.742;-1.226;2022-09-13T05:32:52;98784.06;;;18.31;100.00
62557;BME280;48612;50.742;-1.226;2022-09-13T05:35:18;98779.38;;;18.27;100.00
62557;BME280;48612;50.742;-1.226;2022-09-13T05:37:51;98780.94;;;18.29;100.00
62557;BME280;48612;50.742;-1.226;2022-09-13T05:40:25;98774.31;;;18.26;100.00
62557;BME280;48612;50.742;-1.226;2022-09-13T05:42:52;98780.44;;;18.26;100.00
62557;BME280;48612;50.742;-1.226;2022-09-13T05:45:19;98766.31;;;18.26;100.00
62557;BME280;48612;50.742;-1.226;2022-09-13T05:47:50;98767.41;;;18.25;100.00
62557;BME280;48612;50.742;-1.226;2022-09-13T05:50:16;98763.81;;;18.21;100.00
62557;BME280;48612;50.742;-1.226;2022-09-13T05:52:43;98758.16;;;18.22;100.00
62557;BME280;48612;50.742;-1.226;2022-09-13T05:55:08;98760.03;;;18.22;100.00
62557;BME280;48612;50.742;-1.226;2022-09-13T05:57:36;98754.69;;;18.22;100.00
62557;BME280;48612;50.742;-1.226;2022-09-13T06:00:22;98750.47;;;18.21;100.00
62557;BME280;48612;50.742;-1.226;2022-09-13T06:02:47;98752.03;;;18.22;100.00
62557;BME280;48612;50.742;-1.226;2022-09-13T06:05:14;98756.88;;;18.20;100.00
62557;BME280;48612;50.742;-1.226;2022-09-13T06:07:48;98752.19;;;18.17;100.00
62557;BME280;48612;50.742;-1.226;2022-09-13T06:10:14;98755.97;;;18.16;100.00
62557;BME280;48612;50.742;-1.226;2022-09-13T06:13:01;98754.22;;;18.20;100.00
62557;BME280;48612;50.742;-1.226;2022-09-13T06:15:29;98746.19;;;18.20;100.00
62557;BME280;48612;50.742;-1.226;2022-09-13T06:18:15;98740.84;;;18.20;100.00
62557;BME280;48612;50.742;-1.226;2022-09-13T06:20:59;98732.41;;;18.18;100.00
62557;BME280;48612;50.742;-1.226;2022-09-13T06:23:37;98732.84;;;18.20;100.00
62557;BME280;48612;50.742;-1.226;2022-09-13T06:26:23;98731.75;;;18.21;100.00
62557;BME280;48612;50.742;-1.226;2022-09-13T06:28:53;98731.75;;;18.21;100.00
62557;BME280;48612;50.742;-1.226;2022-09-13T06:31:42;98737.09;;;18.21;100.00
62557;BME280;48612;50.742;-1.226;2022-09-13T06:34:11;98730.97;;;18.20;100.00
62557;BME280;48612;50.742;-1.226;2022-09-13T06:36:42;98735.22;;;18.21;100.00
62557;BME280;48612;50.742;-1.226;2022-09-13T06:39:10;98724.53;;;18.21;100.00
62557;BME280;48612;50.742;-1.226;2022-09-13T06:41:36;98730.19;;;18.20;100.00
62557;BME280;48612;50.742;-1.226;2022-09-13T06:44:02;98738.03;;;18.25;100.00
62557;BME280;48612;50.742;-1.226;2022-09-13T06:46:30;98722.63;;;18.22;100.00
62557;BME280;48612;50.742;-1.226;2022-09-13T06:49:19;98717.78;;;18.24;100.00
62557;BME280;48612;50.742;-1.226;2022-09-13T06:51:49;98703.94;;;18.22;100.00
62557;BME280;48612;50.742;-1.226;2022-09-13T06:54:37;98698.59;;;18.22;100.00
62557;BME280;48612;50.742;-1.226;2022-09-13T06:57:30;98683.69;;;18.21;100.00
62557;BME280;48612;50.742;-1.226;2022-09-13T07:00:00;98672.38;;;18.15;100.00
62557;BME280;48612;50.742;-1.226;2022-09-13T07:02:52;98677.56;;;18.20;100.00
62557;BME280;48612;50.742;-1.226;2022-09-13T07:05:27;98680.53;;;18.19;100.00
62557;BME280;48612;50.742;-1.226;2022-09-13T07:08:07;98671.91;;;18.13;100.00
62557;BME280;48612;50.742;-1.226;2022-09-13T07:10:59;98668.28;;;18.18;100.00
62557;BME280;48612;50.742;-1.226;2022-09-13T07:13:50;98667.38;;;18.14;100.00
62557;BME280;48612;50.742;-1.226;2022-09-13T07:16:50;98665.94;;;18.16;100.00
62557;BME280;48612;50.742;-1.226;2022-09-13T07:23:21;98641.66;;;18.00;100.00
62557;BME280;48612;50.742;-1.226;2022-09-13T07:25:55;98669.56;;;18.12;100.00
62557;BME280;48612;50.742;-1.226;2022-09-13T07:28:28;98661.41;;;18.08;100.00
62557;BME280;48612;50.742;-1.226;2022-09-13T07:31:09;98657.31;;;18.11;100.00
62557;BME280;48612;50.742;-1.226;2022-09-13T07:33:39;98650.09;;;18.02;100.00
62557;BME280;48612;50.742;-1.226;2022-09-13T07:36:17;98642.72;;;17.99;100.00
62557;BME280;48612;50.742;-1.226;2022-09-13T07:38:43;98652.78;;;18.02;100.00
62557;BME280;48612;50.742;-1.226;2022-09-13T07:41:15;98644.75;;;18.02;100.00
62557;BME280;48612;50.742;-1.226;2022-09-13T07:43:46;98640.53;;;18.01;100.00
62557;BME280;48612;50.742;-1.226;2022-09-13T07:46:33;98655.28;;;18.08;100.00
62557;BME280;48612;50.742;-1.226;2022-09-13T07:49:06;98637.22;;;18.05;100.00
62557;BME280;48612;50.742;-1.226;2022-09-13T07:51:43;98631.25;;;18.08;100.00
62557;BME280;48612;50.742;-1.226;2022-09-13T07:54:16;98622.91;;;18.09;100.00
62557;BME280;48612;50.742;-1.226;2022-09-13T07:56:47;98635.75;;;18.16;100.00
62557;BME280;48612;50.742;-1.226;2022-09-13T08:02:40;98623.69;;;18.10;100.00
62557;BME280;48612;50.742;-1.226;2022-09-13T08:05:06;98634.81;;;18.20;100.00
62557;BME280;48612;50.742;-1.226;2022-09-13T08:07:34;98627.75;;;18.16;100.00
62557;BME280;48612;50.742;-1.226;2022-09-13T08:10:06;98619.28;;;18.14;100.00
62557;BME280;48612;50.742;-1.226;2022-09-13T08:12:36;98613.97;;;18.14;100.00
62557;BME280;48612;50.742;-1.226;2022-09-13T08:15:36;98620.22;;;18.18;100.00
62557;BME280;48612;50.742;-1.226;2022-09-13T08:18:07;98636.25;;;18.18;100.00
62557;BME280;48612;50.742;-1.226;2022-09-13T08:20:37;98653.19;;;18.22;100.00
62557;BME280;48612;50.742;-1.226;2022-09-13T08:23:25;98650.19;;;18.23;100.00
62557;BME280;48612;50.742;-1.226;2022-09-13T08:26:03;98647.84;;;18.22;100.00
62557;BME280;48612;50.742;-1.226;2022-09-13T08:28:33;98656.47;;;18.27;100.00
62557;BME280;48612;50.742;-1.226;2022-09-13T08:31:14;98643.25;;;18.31;100.00
62557;BME280;48612;50.742;-1.226;2022-09-13T08:33:48;98640.25;;;18.41;100.00
62557;BME280;48612;50.742;-1.226;2022-09-13T08:36:23;98636.75;;;18.41;100.00
62557;BME280;48612;50.742;-1.226;2022-09-13T08:38:54;98644.28;;;18.47;100.00
62557;BME280;48612;50.742;-1.226;2022-09-13T08:42:00;98647.06;;;18.60;100.00
62557;BME280;48612;50.742;-1.226;2022-09-13T08:44:36;98641.66;;;18.68;100.00
62557;BME280;48612;50.742;-1.226;2022-09-13T08:47:06;98643.53;;;18.77;100.00
62557;BME280;48612;50.742;-1.226;2022-09-13T08:49:51;98648.38;;;18.83;100.00
62557;BME280;48612;50.742;-1.226;2022-09-13T08:52:37;98659.63;;;18.89;100.00
62557;BME280;48612;50.742;-1.226;2022-09-13T08:58:04;98667.66;;;18.89;100.00
62557;BME280;48612;50.742;-1.226;2022-09-13T09:00:40;98683.81;;;19.01;100.00
62557;BME280;48612;50.742;-1.226;2022-09-13T09:06:17;98685.06;;;19.04;100.00
62557;BME280;48612;50.742;-1.226;2022-09-13T09:09:17;98706.84;;;19.14;100.00
62557;BME280;48612;50.742;-1.226;2022-09-13T09:12:18;98716.56;;;19.19;100.00
62557;BME280;48612;50.742;-1.226;2022-09-13T09:15:46;98722.19;;;19.26;100.00
62557;BME280;48612;50.742;-1.226;2022-09-13T09:18:50;98720.63;;;19.25;100.00
62557;BME280;48612;50.742;-1.226;2022-09-13T09:21:40;98739.81;;;19.27;100.00
62557;BME280;48612;50.742;-1.226;2022-09-13T09:24:28;98742.41;;;19.15;100.00
62557;BME280;48612;50.742;-1.226;2022-09-13T09:27:29;98746.06;;;19.10;100.00
62557;BME280;48612;50.742;-1.226;2022-09-13T09:30:21;98754.72;;;19.07;100.00
62557;BME280;48612;50.742;-1.226;2022-09-13T09:40:05;98767.75;;;19.09;100.00
62557;BME280;48612;50.742;-1.226;2022-09-13T13:19:27;98811.28;;;17.98;100.00
62557;BME280;48612;50.742;-1.226;2022-09-13T13:34:58;98794.00;;;17.87;100.00
62557;BME280;48612;50.742;-1.226;2022-09-13T13:57:50;98763.19;;;17.72;100.00
62557;BME280;48612;50.742;-1.226;2022-09-13T14:01:00;98755.16;;;17.72;100.00
62557;BME280;48612;50.742;-1.226;2022-09-13T14:04:33;98766.97;;;17.71;100.00
62557;BME280;48612;50.742;-1.226;2022-09-13T14:20:14;98729.44;;;17.67;100.00
62557;BME280;48612;50.742;-1.226;2022-09-13T14:23:49;98721.75;;;17.66;100.00
62557;BME280;48612;50.742;-1.226;2022-09-13T14:27:04;98712.78;;;17.62;100.00
62557;BME280;48612;50.742;-1.226;2022-09-13T14:29:55;98713.91;;;17.52;100.00
62557;BME280;48612;50.742;-1.226;2022-09-13T14:32:45;98712.47;;;17.54;100.00
62557;BME280;48612;50.742;-1.226;2022-09-13T14:36:04;98704.31;;;17.51;100.00
62557;BME280;48612;50.742;-1.226;2022-09-13T14:39:19;98703.06;;;17.48;100.00
62557;BME280;48612;50.742;-1.226;2022-09-13T14:42:12;98704.94;;;17.48;100.00
62557;BME280;48612;50.742;-1.226;2022-09-13T14:44:52;98695.22;;;17.43;100.00
62557;BME280;48612;50.742;-1.226;2022-09-13T14:50:46;98687.38;;;17.47;100.00
62557;BME280;48612;50.742;-1.226;2022-09-13T14:53:25;98659.91;;;17.46;100.00
62557;BME280;48612;50.742;-1.226;2022-09-13T14:56:26;98639.34;;;17.47;100.00
62557;BME280;48612;50.742;-1.226;2022-09-13T14:58:59;98630.22;;;17.48;100.00
62557;BME280;48612;50.742;-1.226;2022-09-13T15:01:35;98622.72;;;17.50;100.00
62557;BME280;48612;50.742;-1.226;2022-09-13T15:04:19;98588.50;;;17.43;100.00
62557;BME280;48612;50.742;-1.226;2022-09-13T15:07:15;98589.13;;;17.49;100.00
62557;BME280;48612;50.742;-1.226;2022-09-13T15:09:46;98569.84;;;17.52;100.00
62557;BME280;48612;50.742;-1.226;2022-09-13T15:12:25;98576.41;;;17.54;100.00
62557;BME280;48612;50.742;-1.226;2022-09-13T15:21:05;98560.22;;;17.60;100.00
62557;BME280;48612;50.742;-1.226;2022-09-13T15:23:55;98547.66;;;17.60;100.00
62557;BME280;48612;50.742;-1.226;2022-09-13T15:26:25;98553.78;;;17.61;100.00
62557;BME280;48612;50.742;-1.226;2022-09-13T15:29:01;98551.59;;;17.63;100.00
62557;BME280;48612;50.742;-1.226;2022-09-13T15:31:39;98547.81;;;17.64;100.00
62557;BME280;48612;50.742;-1.226;2022-09-13T15:39:25;98541.06;;;17.66;100.00
62557;BME280;48612;50.742;-1.226;2022-09-13T15:42:01;98527.38;;;17.68;100.00
62557;BME280;48612;50.742;-1.226;2022-09-13T15:44:28;98514.97;;;17.72;100.00
62557;BME280;48612;50.742;-1.226;2022-09-13T15:47:01;98508.72;;;17.76;100.00
62557;BME280;48612;50.742;-1.226;2022-09-13T15:49:49;98508.06;;;17.79;100.00
62557;BME280;48612;50.742;-1.226;2022-09-13T15:52:16;98506.50;;;17.78;100.00
62557;BME280;48612;50.742;-1.226;2022-09-13T15:54:42;98511.53;;;17.80;100.00
62557;BME280;48612;50.742;-1.226;2022-09-13T15:57:13;98511.97;;;17.82;100.00
62557;BME280;48612;50.742;-1.226;2022-09-13T15:59:42;98511.66;;;17.84;100.00
62557;BME280;48612;50.742;-1.226;2022-09-13T16:02:22;98517.44;;;17.86;100.00
62557;BME280;48612;50.742;-1.226;2022-09-13T16:04:50;98518.13;;;17.83;100.00
62557;BME280;48612;50.742;-1.226;2022-09-13T16:07:35;98515.13;;;17.84;100.00
62557;BME280;48612;50.742;-1.226;2022-09-13T16:10:02;98514.34;;;17.84;100.00
62557;BME280;48612;50.742;-1.226;2022-09-13T16:12:28;98518.13;;;17.83;100.00
62557;BME280;48612;50.742;-1.226;2022-09-13T16:14:53;98507.75;;;17.81;100.00
62557;BME280;48612;50.742;-1.226;2022-09-13T16:17:24;98505.84;;;17.82;100.00
62557;BME280;48612;50.742;-1.226;2022-09-13T16:19:50;98499.28;;;17.79;100.00
62557;BME280;48612;50.742;-1.226;2022-09-13T16:22:17;98493.28;;;17.82;100.00
62557;BME280;48612;50.742;-1.226;2022-09-13T16:24:44;98489.53;;;17.83;100.00
62557;BME280;48612;50.742;-1.226;2022-09-13T16:27:18;98484.97;;;17.84;100.00
62557;BME280;48612;50.742;-1.226;2022-09-13T16:29:48;98487.03;;;17.78;100.00
62557;BME280;48612;50.742;-1.226;2022-09-13T16:32:19;98500.38;;;17.78;100.00
62557;BME280;48612;50.742;-1.226;2022-09-13T16:34:46;98501.50;;;17.77;100.00
62557;BME280;48612;50.742;-1.226;2022-09-13T16:37:18;98499.59;;;17.77;100.00
62557;BME280;48612;50.742;-1.226;2022-09-13T16:39:46;98511.06;;;17.78;100.00
62557;BME280;48612;50.742;-1.226;2022-09-13T16:42:13;98507.59;;;17.77;100.00
62557;BME280;48612;50.742;-1.226;2022-09-13T16:44:42;98515.94;;;17.76;100.00
62557;BME280;48612;50.742;-1.226;2022-09-13T16:47:08;98510.75;;;17.71;100.00
62557;BME280;48612;50.742;-1.226;2022-09-13T16:49:38;98506.50;;;17.70;100.00
62557;BME280;48612;50.742;-1.226;2022-09-13T16:52:05;98502.59;;;17.76;100.00
62557;BME280;48612;50.742;-1.226;2022-09-13T16:54:30;98495.50;;;17.80;100.00
62557;BME280;48612;50.742;-1.226;2022-09-13T16:57:01;98498.63;;;17.82;100.00
62557;BME280;48612;50.742;-1.226;2022-09-13T16:59:27;98503.31;;;17.85;100.00
62557;BME280;48612;50.742;-1.226;2022-09-13T17:02:13;98489.97;;;17.85;100.00
62557;BME280;48612;50.742;-1.226;2022-09-13T17:04:42;98480.41;;;17.84;100.00
62557;BME280;48612;50.742;-1.226;2022-09-13T17:07:28;98477.09;;;17.87;100.00
62557;BME280;48612;50.742;-1.226;2022-09-13T17:09:58;98468.63;;;17.85;100.00
62557;BME280;48612;50.742;-1.226;2022-09-13T17:12:33;98493.75;;;17.84;100.00
62557;BME280;48612;50.742;-1.226;2022-09-13T17:15:00;98493.28;;;17.82;100.00
62557;BME280;48612;50.742;-1.226;2022-09-13T17:17:29;98491.28;;;17.79;100.00
62557;BME280;48612;50.742;-1.226;2022-09-13T17:20:23;98484.06;;;17.79;100.00
62557;BME280;48612;50.742;-1.226;2022-09-13T17:22:55;98493.47;;;17.77;100.00
62557;BME280;48612;50.742;-1.226;2022-09-13T17:25:25;98493.31;;;17.73;100.00
62557;BME280;48612;50.742;-1.226;2022-09-13T17:28:11;98492.06;;;17.71;100.00
62557;BME280;48612;50.742;-1.226;2022-09-13T17:30:37;98495.06;;;17.69;100.00
62557;BME280;48612;50.742;-1.226;2022-09-13T17:33:26;98488.47;;;17.67;100.00
62557;BME280;48612;50.742;-1.226;2022-09-13T17:36:05;98480.63;;;17.62;100.00
62557;BME280;48612;50.742;-1.226;2022-09-13T17:38:55;98476.88;;;17.63;100.00
62557;BME280;48612;50.742;-1.226;2022-09-13T17:41:29;98473.72;;;17.61;100.00
62557;BME280;48612;50.742;-1.226;2022-09-13T17:43:55;98475.47;;;17.56;100.00
62557;BME280;48612;50.742;-1.226;2022-09-13T17:46:26;98478.16;;;17.56;100.00
62557;BME280;48612;50.742;-1.226;2022-09-13T17:48:56;98489.94;;;17.55;100.00
62557;BME280;48612;50.742;-1.226;2022-09-13T17:51:42;98484.13;;;17.53;100.00
62557;BME280;48612;50.742;-1.226;2022-09-13T17:54:28;98474.09;;;17.50;100.00
62557;BME280;48612;50.742;-1.226;2022-09-13T17:56:54;98477.72;;;17.46;100.00
62557;BME280;48612;50.742;-1.226;2022-09-13T17:59:39;98473.63;;;17.48;100.00
62557;BME280;48612;50.742;-1.226;2022-09-13T18:02:31;98468.59;;;17.47;100.00
62557;BME280;48612;50.742;-1.226;2022-09-13T18:04:57;98471.59;;;17.45;100.00
62557;BME280;48612;50.742;-1.226;2022-09-13T18:07:25;98475.34;;;17.44;100.00
62557;BME280;48612;50.742;-1.226;2022-09-13T18:09:51;98465.78;;;17.43;100.00
62557;BME280;48612;50.742;-1.226;2022-09-13T18:12:22;98463.75;;;17.40;100.00
62557;BME280;48612;50.742;-1.226;2022-09-13T18:14:51;98453.09;;;17.40;100.00
62557;BME280;48612;50.742;-1.226;2022-09-13T18:17:25;98448.53;;;17.41;100.00
62557;BME280;48612;50.742;-1.226;2022-09-13T18:19:59;98442.59;;;17.35;100.00
62557;BME280;48612;50.742;-1.226;2022-09-13T18:22:24;98445.41;;;17.39;100.00
62557;BME280;48612;50.742;-1.226;2022-09-13T18:24:51;98439.31;;;17.38;100.00
62557;BME280;48612;50.742;-1.226;2022-09-13T18:27:16;98433.50;;;17.36;100.00
62557;BME280;48612;50.742;-1.226;2022-09-13T18:30:08;98440.72;;;17.36;100.00
62557;BME280;48612;50.742;-1.226;2022-09-13T18:32:53;98434.75;;;17.30;100.00
62557;BME280;48612;50.742;-1.226;2022-09-13T18:35:21;98427.25;;;17.32;100.00
62557;BME280;48612;50.742;-1.226;2022-09-13T18:37:48;98429.91;;;17.32;100.00
62557;BME280;48612;50.742;-1.226;2022-09-13T18:40:35;98432.09;;;17.30;100.00
62557;BME280;48612;50.742;-1.226;2022-09-13T18:43:02;98419.25;;;17.32;100.00
62557;BME280;48612;50.742;-1.226;2022-09-13T18:45:28;98412.34;;;17.31;100.00
62557;BME280;48612;50.742;-1.226;2022-09-13T18:47:57;98406.53;;;17.29;100.00
62557;BME280;48612;50.742;-1.226;2022-09-13T18:50:43;98397.63;;;17.25;100.00
62557;BME280;48612;50.742;-1.226;2022-09-13T18:53:11;98408.56;;;17.32;100.00
62557;BME280;48612;50.742;-1.226;2022-09-13T18:56:16;98401.69;;;17.31;100.00
62557;BME280;48612;50.742;-1.226;2022-09-13T18:58:44;98400.72;;;17.27;100.00
62557;BME280;48612;50.742;-1.226;2022-09-13T19:01:34;98400.72;;;17.27;100.00
62557;BME280;48612;50.742;-1.226;2022-09-13T19:04:03;98404.50;;;17.26;100.00
62557;BME280;48612;50.742;-1.226;2022-09-13T19:06:53;98393.84;;;17.26;100.00
62557;BME280;48612;50.742;-1.226;2022-09-13T19:09:30;98396.84;;;17.24;100.00
62557;BME280;48612;50.742;-1.226;2022-09-13T19:11:59;98412.84;;;17.24;100.00
62557;BME280;48612;50.742;-1.226;2022-09-13T19:14:30;98423.03;;;17.22;100.00
62557;BME280;48612;50.742;-1.226;2022-09-13T19:16:59;98414.56;;;17.20;100.00
62557;BME280;48612;50.742;-1.226;2022-09-13T19:19:26;98414.25;;;17.22;100.00
62557;BME280;48612;50.742;-1.226;2022-09-13T19:21:52;98423.38;;;17.21;100.00
62557;BME280;48612;50.742;-1.226;2022-09-13T19:24:21;98423.38;;;17.21;100.00
62557;BME280;48612;50.742;-1.226;2022-09-13T19:26:49;98411.88;;;17.20;100.00
62557;BME280;48612;50.742;-1.226;2022-09-13T19:29:20;98415.66;;;17.19;100.00